sensor_id;sensor_type;location;lat;lon;timestamp;P1;durP1;ratioP1;P2;durP2;ratioP2
4616;SDS011;2321;42.704;23.384;2023-03-01T00:02:06;1.23;;;1.20;;
4616;SDS011;2321;42.704;23.384;2023-03-01T00:04:32;1.20;;;1.20;;
4616;SDS011;2321;42.704;23.384;2023-03-01T00:07:00;1.23;;;1.23;;
4616;SDS011;2321;42.704;23.384;2023-03-01T00:09:27;0.70;;;0.70;;
4616;SDS011;2321;42.704;23.384;2023-03-01T00:11:54;0.93;;;0.93;;
4616;SDS011;2321;42.704;23.384;2023-03-01T00:14:22;1.20;;;1.20;;
4616;SDS011;2321;42.704;23.384;2023-03-01T00:16:49;1.03;;;1.03;;
4616;SDS011;2321;42.704;23.384;2023-03-01T00:19:17;1.17;;;1.07;;
4616;SDS011;2321;42.704;23.384;2023-03-01T00:21:45;1.33;;;1.33;;
4616;SDS011;2321;42.704;23.384;2023-03-01T00:24:12;1.90;;;1.80;;
4616;SDS011;2321;42.704;23.384;2023-03-01T00:26:38;1.00;;;1.00;;
4616;SDS011;2321;42.704;23.384;2023-03-01T00:29:05;0.97;;;0.97;;
4616;SDS011;2321;42.704;23.384;2023-03-01T00:31:34;0.87;;;0.87;;
4616;SDS011;2321;42.704;23.384;2023-03-01T00:34:02;1.20;;;1.20;;
4616;SDS011;2321;42.704;23.384;2023-03-01T00:36:30;0.97;;;0.90;;
4616;SDS011;2321;42.704;23.384;2023-03-01T00:38:59;1.70;;;1.70;;
4616;SDS011;2321;42.704;23.384;2023-03-01T00:41:26;0.80;;;0.80;;
4616;SDS011;2321;42.704;23.384;2023-03-01T00:43:54;0.80;;;0.80;;
4616;SDS011;2321;42.704;23.384;2023-03-01T00:46:21;1.70;;;1.60;;
4616;SDS011;2321;42.704;23.384;2023-03-01T00:48:51;1.10;;;1.10;;
4616;SDS011;2321;42.704;23.384;2023-03-01T00:51:19;3.60;;;1.33;;
4616;SDS011;2321;42.704;23.384;2023-03-01T00:53:49;1.33;;;1.23;;
4616;SDS011;2321;42.704;23.384;2023-03-01T00:56:17;1.03;;;1.03;;
4616;SDS011;2321;42.704;23.384;2023-03-01T00:58:44;0.90;;;0.90;;
4616;SDS011;2321;42.704;23.384;2023-03-01T01:01:11;0.90;;;0.90;;
4616;SDS011;2321;42.704;23.384;2023-03-01T01:03:44;1.07;;;1.07;;
4616;SDS011;2321;42.704;23.384;2023-03-01T01:06:17;1.50;;;1.30;;
4616;SDS011;2321;42.704;23.384;2023-03-01T01:08:45;1.20;;;1.20;;
4616;SDS011;2321;42.704;23.384;2023-03-01T01:11:12;1.30;;;1.30;;
4616;SDS011;2321;42.704;23.384;2023-03-01T01:13:39;0.90;;;0.90;;
4616;SDS011;2321;42.704;23.384;2023-03-01T01:16:07;1.10;;;1.10;;
4616;SDS011;2321;42.704;23.384;2023-03-01T01:18:34;0.80;;;0.80;;
4616;SDS011;2321;42.704;23.384;2023-03-01T01:21:05;0.80;;;0.80;;
4616;SDS011;2321;42.704;23.384;2023-03-01T01:23:34;0.70;;;0.70;;
4616;SDS011;2321;42.704;23.384;2023-03-01T01:26:05;0.80;;;0.80;;
4616;SDS011;2321;42.704;23.384;2023-03-01T01:28:33;2.40;;;1.77;;
4616;SDS011;2321;42.704;23.384;2023-03-01T01:31:00;1.47;;;1.47;;
4616;SDS011;2321;42.704;23.384;2023-03-01T01:33:27;1.60;;;1.60;;
4616;SDS011;2321;42.704;23.384;2023-03-01T01:35:54;1.83;;;1.83;;
4616;SDS011;2321;42.704;23.384;2023-03-01T01:38:21;2.00;;;1.90;;
4616;SDS011;2321;42.704;23.384;2023-03-01T01:40:49;1.53;;;1.53;;
4616;SDS011;2321;42.704;23.384;2023-03-01T01:43:18;1.80;;;1.77;;
4616;SDS011;2321;42.704;23.384;2023-03-01T01:45:47;2.17;;;1.63;;
4616;SDS011;2321;42.704;23.384;2023-03-01T01:48:16;2.10;;;1.57;;
4616;SDS011;2321;42.704;23.384;2023-03-01T01:50:48;1.10;;;1.10;;
4616;SDS011;2321;42.704;23.384;2023-03-01T01:53:22;1.37;;;1.37;;
4616;SDS011;2321;42.704;23.384;2023-03-01T01:55:53;0.80;;;0.80;;
4616;SDS011;2321;42.704;23.384;2023-03-01T01:58:25;0.60;;;0.60;;
4616;SDS011;2321;42.704;23.384;2023-03-01T02:00:54;0.63;;;0.63;;
4616;SDS011;2321;42.704;23.384;2023-03-01T02:03:22;1.20;;;1.10;;
4616;SDS011;2321;42.704;23.384;2023-03-01T02:05:55;1.20;;;1.20;;
4616;SDS011;2321;42.704;23.384;2023-03-01T02:08:27;1.67;;;1.60;;
4616;SDS011;2321;42.704;23.384;2023-03-01T02:10:58;0.77;;;0.77;;
4616;SDS011;2321;42.704;23.384;2023-03-01T02:13:26;1.00;;;1.00;;
4616;SDS011;2321;42.704;23.384;2023-03-01T02:15:53;0.60;;;0.60;;
4616;SDS011;2321;42.704;23.384;2023-03-01T02:18:21;1.27;;;1.20;;
4616;SDS011;2321;42.704;23.384;2023-03-01T02:20:52;0.70;;;0.70;;
4616;SDS011;2321;42.704;23.384;2023-03-01T02:23:28;1.00;;;1.00;;
4616;SDS011;2321;42.704;23.384;2023-03-01T02:25:57;0.90;;;0.90;;
4616;SDS011;2321;42.704;23.384;2023-03-01T02:28:31;0.60;;;0.60;;
4616;SDS011;2321;42.704;23.384;2023-03-01T02:30:59;0.53;;;0.53;;
4616;SDS011;2321;42.704;23.384;2023-03-01T02:33:47;0.60;;;0.60;;
4616;SDS011;2321;42.704;23.384;2023-03-01T02:36:15;0.80;;;0.80;;
4616;SDS011;2321;42.704;23.384;2023-03-01T02:38:45;0.70;;;0.70;;
4616;SDS011;2321;42.704;23.384;2023-03-01T02:41:13;1.30;;;1.30;;
4616;SDS011;2321;42.704;23.384;2023-03-01T02:43:44;0.70;;;0.70;;
4616;SDS011;2321;42.704;23.384;2023-03-01T02:46:13;1.00;;;1.00;;
4616;SDS011;2321;42.704;23.384;2023-03-01T02:48:43;1.13;;;1.13;;
4616;SDS011;2321;42.704;23.384;2023-03-01T02:51:14;0.60;;;0.60;;
4616;SDS011;2321;42.704;23.384;2023-03-01T02:53:53;1.33;;;1.33;;
4616;SDS011;2321;42.704;23.384;2023-03-01T02:56:29;0.70;;;0.70;;
4616;SDS011;2321;42.704;23.384;2023-03-01T02:58:58;1.07;;;1.03;;
4616;SDS011;2321;42.704;23.384;2023-03-01T03:01:26;0.90;;;0.90;;
4616;SDS011;2321;42.704;23.384;2023-03-01T03:04:02;1.57;;;1.47;;
4616;SDS011;2321;42.704;23.384;2023-03-01T03:06:30;0.90;;;0.90;;
4616;SDS011;2321;42.704;23.384;2023-03-01T03:08:57;1.00;;;1.00;;
4616;SDS011;2321;42.704;23.384;2023-03-01T03:11:24;1.50;;;1.50;;
4616;SDS011;2321;42.704;23.384;2023-03-01T03:13:51;1.10;;;1.10;;
4616;SDS011;2321;42.704;23.384;2023-03-01T03:16:19;2.07;;;1.97;;
4616;SDS011;2321;42.704;23.384;2023-03-01T03:18:47;1.60;;;1.50;;
4616;SDS011;2321;42.704;23.384;2023-03-01T03:21:14;2.43;;;2.33;;
4616;SDS011;2321;42.704;23.384;2023-03-01T03:23:41;1.00;;;1.00;;
4616;SDS011;2321;42.704;23.384;2023-03-01T03:26:08;0.90;;;0.90;;
4616;SDS011;2321;42.704;23.384;2023-03-01T03:28:38;1.53;;;1.53;;
4616;SDS011;2321;42.704;23.384;2023-03-01T03:31:06;0.77;;;0.77;;
4616;SDS011;2321;42.704;23.384;2023-03-01T03:33:34;0.80;;;0.80;;
4616;SDS011;2321;42.704;23.384;2023-03-01T03:36:02;0.90;;;0.90;;
4616;SDS011;2321;42.704;23.384;2023-03-01T03:38:29;1.00;;;1.00;;
4616;SDS011;2321;42.704;23.384;2023-03-01T03:40:59;0.83;;;0.83;;
4616;SDS011;2321;42.704;23.384;2023-03-01T03:43:30;0.80;;;0.80;;
4616;SDS011;2321;42.704;23.384;2023-03-01T03:45:58;1.37;;;1.30;;
4616;SDS011;2321;42.704;23.384;2023-03-01T03:48:25;1.60;;;1.37;;
4616;SDS011;2321;42.704;23.384;2023-03-01T03:50:55;1.47;;;1.37;;
4616;SDS011;2321;42.704;23.384;2023-03-01T03:53:23;1.10;;;1.10;;
4616;SDS011;2321;42.704;23.384;2023-03-01T03:58:37;1.00;;;1.00;;
4616;SDS011;2321;42.704;23.384;2023-03-01T04:01:04;1.17;;;1.17;;
4616;SDS011;2321;42.704;23.384;2023-03-01T04:03:49;0.77;;;0.77;;
4616;SDS011;2321;42.704;23.384;2023-03-01T04:06:21;2.20;;;2.10;;
4616;SDS011;2321;42.704;23.384;2023-03-01T04:08:48;2.73;;;2.17;;
4616;SDS011;2321;42.704;23.384;2023-03-01T04:11:25;0.70;;;0.70;;
4616;SDS011;2321;42.704;23.384;2023-03-01T04:13:55;0.93;;;0.93;;
4616;SDS011;2321;42.704;23.384;2023-03-01T04:16:24;1.07;;;1.07;;
4616;SDS011;2321;42.704;23.384;2023-03-01T04:18:51;1.10;;;1.10;;
4616;SDS011;2321;42.704;23.384;2023-03-01T04:21:20;0.80;;;0.80;;
4616;SDS011;2321;42.704;23.384;2023-03-01T04:23:47;1.23;;;1.23;;
4616;SDS011;2321;42.704;23.384;2023-03-01T04:26:17;1.10;;;1.10;;
4616;SDS011;2321;42.704;23.384;2023-03-01T04:28:44;0.80;;;0.80;;
4616;SDS011;2321;42.704;23.384;2023-03-01T04:31:13;0.80;;;0.80;;
4616;SDS011;2321;42.704;23.384;2023-03-01T04:33:44;3.33;;;3.17;;
4616;SDS011;2321;42.704;23.384;2023-03-01T04:36:13;2.23;;;2.13;;
4616;SDS011;2321;42.704;23.384;2023-03-01T04:38:42;2.47;;;2.27;;
4616;SDS011;2321;42.704;23.384;2023-03-01T04:41:12;2.30;;;2.17;;
4616;SDS011;2321;42.704;23.384;2023-03-01T04:43:40;6.13;;;5.13;;
4616;SDS011;2321;42.704;23.384;2023-03-01T04:46:08;5.47;;;5.03;;
4616;SDS011;2321;42.704;23.384;2023-03-01T04:48:37;7.60;;;2.53;;
4616;SDS011;2321;42.704;23.384;2023-03-01T04:51:05;11.83;;;7.77;;
4616;SDS011;2321;42.704;23.384;2023-03-01T04:53:33;6.63;;;3.53;;
4616;SDS011;2321;42.704;23.384;2023-03-01T04:56:04;0.93;;;0.93;;
4616;SDS011;2321;42.704;23.384;2023-03-01T04:58:31;2.53;;;2.33;;
4616;SDS011;2321;42.704;23.384;2023-03-01T05:00:58;65.73;;;2.73;;
4616;SDS011;2321;42.704;23.384;2023-03-01T05:03:25;0.70;;;0.70;;
4616;SDS011;2321;42.704;23.384;2023-03-01T05:05:53;1.07;;;0.90;;
4616;SDS011;2321;42.704;23.384;2023-03-01T05:08:20;1.30;;;1.30;;
4616;SDS011;2321;42.704;23.384;2023-03-01T05:10:48;1.10;;;1.10;;
4616;SDS011;2321;42.704;23.384;2023-03-01T05:13:17;1.40;;;1.40;;
4616;SDS011;2321;42.704;23.384;2023-03-01T05:15:47;1.00;;;1.00;;
4616;SDS011;2321;42.704;23.384;2023-03-01T05:18:14;1.20;;;1.20;;
4616;SDS011;2321;42.704;23.384;2023-03-01T05:20:41;1.10;;;1.10;;
4616;SDS011;2321;42.704;23.384;2023-03-01T05:23:09;0.70;;;0.70;;
4616;SDS011;2321;42.704;23.384;2023-03-01T05:25:36;0.80;;;0.80;;
4616;SDS011;2321;42.704;23.384;2023-03-01T05:28:05;1.40;;;1.30;;
4616;SDS011;2321;42.704;23.384;2023-03-01T05:30:36;0.97;;;0.97;;
4616;SDS011;2321;42.704;23.384;2023-03-01T05:33:04;0.70;;;0.70;;
4616;SDS011;2321;42.704;23.384;2023-03-01T05:35:38;0.80;;;0.80;;
4616;SDS011;2321;42.704;23.384;2023-03-01T05:38:05;1.50;;;1.40;;
4616;SDS011;2321;42.704;23.384;2023-03-01T05:40:33;1.50;;;1.50;;
4616;SDS011;2321;42.704;23.384;2023-03-01T05:43:00;1.30;;;1.30;;
4616;SDS011;2321;42.704;23.384;2023-03-01T05:45:30;2.97;;;2.20;;
4616;SDS011;2321;42.704;23.384;2023-03-01T05:47:59;0.70;;;0.70;;
4616;SDS011;2321;42.704;23.384;2023-03-01T05:50:27;1.80;;;1.80;;
4616;SDS011;2321;42.704;23.384;2023-03-01T05:52:59;0.90;;;0.90;;
4616;SDS011;2321;42.704;23.384;2023-03-01T05:55:28;1.57;;;1.50;;
4616;SDS011;2321;42.704;23.384;2023-03-01T05:57:57;1.50;;;1.50;;
4616;SDS011;2321;42.704;23.384;2023-03-01T06:00:25;1.90;;;1.80;;
4616;SDS011;2321;42.704;23.384;2023-03-01T06:02:53;2.00;;;1.90;;
4616;SDS011;2321;42.704;23.384;2023-03-01T06:05:21;1.03;;;1.03;;
4616;SDS011;2321;42.704;23.384;2023-03-01T06:07:49;1.00;;;1.00;;
4616;SDS011;2321;42.704;23.384;2023-03-01T06:10:16;2.37;;;1.43;;
4616;SDS011;2321;42.704;23.384;2023-03-01T06:12:43;1.30;;;1.30;;
4616;SDS011;2321;42.704;23.384;2023-03-01T06:15:11;1.30;;;1.20;;
4616;SDS011;2321;42.704;23.384;2023-03-01T06:17:40;2.07;;;1.97;;
4616;SDS011;2321;42.704;23.384;2023-03-01T06:20:12;0.87;;;0.87;;
4616;SDS011;2321;42.704;23.384;2023-03-01T06:22:44;1.33;;;1.30;;
4616;SDS011;2321;42.704;23.384;2023-03-01T06:25:12;1.20;;;1.20;;
4616;SDS011;2321;42.704;23.384;2023-03-01T06:27:40;0.60;;;0.60;;
4616;SDS011;2321;42.704;23.384;2023-03-01T06:30:07;5.50;;;2.60;;
4616;SDS011;2321;42.704;23.384;2023-03-01T06:32:36;2.10;;;1.30;;
4616;SDS011;2321;42.704;23.384;2023-03-01T06:35:07;1.00;;;1.00;;
4616;SDS011;2321;42.704;23.384;2023-03-01T06:37:37;6.10;;;2.80;;
4616;SDS011;2321;42.704;23.384;2023-03-01T06:40:06;5.47;;;2.70;;
4616;SDS011;2321;42.704;23.384;2023-03-01T06:42:36;2.17;;;1.77;;
4616;SDS011;2321;42.704;23.384;2023-03-01T06:45:07;3.63;;;2.17;;
4616;SDS011;2321;42.704;23.384;2023-03-01T06:47:35;4.63;;;2.20;;
4616;SDS011;2321;42.704;23.384;2023-03-01T06:50:03;2.57;;;2.27;;
4616;SDS011;2321;42.704;23.384;2023-03-01T06:52:30;5.87;;;4.00;;
4616;SDS011;2321;42.704;23.384;2023-03-01T06:54:57;3.43;;;1.90;;
4616;SDS011;2321;42.704;23.384;2023-03-01T06:57:25;3.93;;;2.23;;
4616;SDS011;2321;42.704;23.384;2023-03-01T06:59:59;3.43;;;1.53;;
4616;SDS011;2321;42.704;23.384;2023-03-01T07:02:36;5.80;;;2.57;;
4616;SDS011;2321;42.704;23.384;2023-03-01T07:05:03;10.63;;;2.30;;
4616;SDS011;2321;42.704;23.384;2023-03-01T07:07:30;7.53;;;2.63;;
4616;SDS011;2321;42.704;23.384;2023-03-01T07:09:57;4.50;;;2.10;;
4616;SDS011;2321;42.704;23.384;2023-03-01T07:12:25;3.40;;;1.90;;
4616;SDS011;2321;42.704;23.384;2023-03-01T07:14:52;22.57;;;2.90;;
4616;SDS011;2321;42.704;23.384;2023-03-01T07:17:19;3.90;;;1.63;;
4616;SDS011;2321;42.704;23.384;2023-03-01T07:19:46;4.23;;;1.93;;
4616;SDS011;2321;42.704;23.384;2023-03-01T07:22:13;4.70;;;2.53;;
4616;SDS011;2321;42.704;23.384;2023-03-01T07:24:40;7.47;;;2.53;;
4616;SDS011;2321;42.704;23.384;2023-03-01T07:27:08;1.63;;;1.53;;
4616;SDS011;2321;42.704;23.384;2023-03-01T07:29:37;3.93;;;1.50;;
4616;SDS011;2321;42.704;23.384;2023-03-01T07:32:04;7.27;;;1.87;;
4616;SDS011;2321;42.704;23.384;2023-03-01T07:34:32;5.80;;;1.83;;
4616;SDS011;2321;42.704;23.384;2023-03-01T07:36:59;9.20;;;2.50;;
4616;SDS011;2321;42.704;23.384;2023-03-01T07:39:26;6.83;;;1.97;;
4616;SDS011;2321;42.704;23.384;2023-03-01T07:41:53;5.63;;;1.90;;
4616;SDS011;2321;42.704;23.384;2023-03-01T07:44:19;7.90;;;2.10;;
4616;SDS011;2321;42.704;23.384;2023-03-01T07:46:48;7.90;;;3.27;;
4616;SDS011;2321;42.704;23.384;2023-03-01T07:49:14;4.47;;;1.57;;
4616;SDS011;2321;42.704;23.384;2023-03-01T07:51:42;5.40;;;1.83;;
4616;SDS011;2321;42.704;23.384;2023-03-01T07:54:09;6.67;;;2.20;;
4616;SDS011;2321;42.704;23.384;2023-03-01T07:56:36;9.47;;;2.47;;
4616;SDS011;2321;42.704;23.384;2023-03-01T07:59:03;8.77;;;2.23;;
4616;SDS011;2321;42.704;23.384;2023-03-01T08:01:30;8.83;;;2.30;;
4616;SDS011;2321;42.704;23.384;2023-03-01T08:03:58;10.27;;;2.33;;
4616;SDS011;2321;42.704;23.384;2023-03-01T08:06:25;13.17;;;2.73;;
4616;SDS011;2321;42.704;23.384;2023-03-01T08:08:52;13.40;;;2.90;;
4616;SDS011;2321;42.704;23.384;2023-03-01T08:11:20;9.97;;;3.00;;
4616;SDS011;2321;42.704;23.384;2023-03-01T08:13:48;11.30;;;2.50;;
4616;SDS011;2321;42.704;23.384;2023-03-01T08:16:15;9.30;;;2.57;;
4616;SDS011;2321;42.704;23.384;2023-03-01T08:18:42;9.27;;;2.60;;
4616;SDS011;2321;42.704;23.384;2023-03-01T08:21:11;7.97;;;2.00;;
4616;SDS011;2321;42.704;23.384;2023-03-01T08:23:40;10.47;;;3.13;;
4616;SDS011;2321;42.704;23.384;2023-03-01T08:26:07;10.03;;;2.50;;
4616;SDS011;2321;42.704;23.384;2023-03-01T08:28:35;10.77;;;2.50;;
4616;SDS011;2321;42.704;23.384;2023-03-01T08:31:02;10.80;;;2.40;;
4616;SDS011;2321;42.704;23.384;2023-03-01T08:33:38;13.10;;;3.33;;
4616;SDS011;2321;42.704;23.384;2023-03-01T08:36:06;10.87;;;2.50;;
4616;SDS011;2321;42.704;23.384;2023-03-01T08:38:34;15.63;;;4.13;;
4616;SDS011;2321;42.704;23.384;2023-03-01T08:41:01;7.13;;;2.23;;
4616;SDS011;2321;42.704;23.384;2023-03-01T08:43:29;10.07;;;2.40;;
4616;SDS011;2321;42.704;23.384;2023-03-01T08:45:56;9.47;;;2.50;;
4616;SDS011;2321;42.704;23.384;2023-03-01T08:48:23;9.83;;;2.70;;
4616;SDS011;2321;42.704;23.384;2023-03-01T08:50:51;10.27;;;2.83;;
4616;SDS011;2321;42.704;23.384;2023-03-01T08:53:17;10.63;;;2.90;;
4616;SDS011;2321;42.704;23.384;2023-03-01T08:55:46;9.53;;;2.57;;
4616;SDS011;2321;42.704;23.384;2023-03-01T08:58:13;10.07;;;3.47;;
4616;SDS011;2321;42.704;23.384;2023-03-01T09:00:40;9.80;;;2.70;;
4616;SDS011;2321;42.704;23.384;2023-03-01T09:03:07;6.87;;;2.13;;
4616;SDS011;2321;42.704;23.384;2023-03-01T09:05:34;9.27;;;2.40;;
4616;SDS011;2321;42.704;23.384;2023-03-01T09:08:02;6.43;;;1.90;;
4616;SDS011;2321;42.704;23.384;2023-03-01T09:10:28;7.53;;;2.10;;
4616;SDS011;2321;42.704;23.384;2023-03-01T09:12:57;6.43;;;2.13;;
4616;SDS011;2321;42.704;23.384;2023-03-01T09:15:24;9.67;;;2.70;;
4616;SDS011;2321;42.704;23.384;2023-03-01T09:17:51;10.60;;;2.67;;
4616;SDS011;2321;42.704;23.384;2023-03-01T09:20:18;8.40;;;2.20;;
4616;SDS011;2321;42.704;23.384;2023-03-01T09:22:45;9.57;;;2.93;;
4616;SDS011;2321;42.704;23.384;2023-03-01T09:25:12;9.70;;;2.30;;
4616;SDS011;2321;42.704;23.384;2023-03-01T09:27:38;9.50;;;2.50;;
4616;SDS011;2321;42.704;23.384;2023-03-01T09:30:07;12.07;;;3.10;;
4616;SDS011;2321;42.704;23.384;2023-03-01T09:32:36;14.07;;;3.10;;
4616;SDS011;2321;42.704;23.384;2023-03-01T09:35:07;11.20;;;2.80;;
4616;SDS011;2321;42.704;23.384;2023-03-01T09:37:35;40.17;;;7.40;;
4616;SDS011;2321;42.704;23.384;2023-03-01T09:40:04;29.03;;;5.33;;
4616;SDS011;2321;42.704;23.384;2023-03-01T09:42:33;25.93;;;5.10;;
4616;SDS011;2321;42.704;23.384;2023-03-01T09:45:03;22.20;;;4.40;;
4616;SDS011;2321;42.704;23.384;2023-03-01T09:47:32;12.10;;;2.77;;
4616;SDS011;2321;42.704;23.384;2023-03-01T09:50:03;78.87;;;6.00;;
4616;SDS011;2321;42.704;23.384;2023-03-01T09:52:36;17.27;;;3.50;;
4616;SDS011;2321;42.704;23.384;2023-03-01T09:55:11;27.10;;;5.60;;
4616;SDS011;2321;42.704;23.384;2023-03-01T09:57:41;32.40;;;6.00;;
4616;SDS011;2321;42.704;23.384;2023-03-01T10:00:18;29.80;;;5.03;;
4616;SDS011;2321;42.704;23.384;2023-03-01T10:02:54;21.40;;;4.10;;
4616;SDS011;2321;42.704;23.384;2023-03-01T10:05:30;22.40;;;3.80;;
4616;SDS011;2321;42.704;23.384;2023-03-01T10:08:12;18.03;;;3.60;;
4616;SDS011;2321;42.704;23.384;2023-03-01T10:10:51;21.13;;;4.00;;
4616;SDS011;2321;42.704;23.384;2023-03-01T10:13:19;25.83;;;4.20;;
4616;SDS011;2321;42.704;23.384;2023-03-01T10:15:50;23.50;;;4.23;;
4616;SDS011;2321;42.704;23.384;2023-03-01T10:18:24;18.47;;;3.40;;
4616;SDS011;2321;42.704;23.384;2023-03-01T10:20:55;28.17;;;4.83;;
4616;SDS011;2321;42.704;23.384;2023-03-01T10:23:25;12.30;;;2.73;;
4616;SDS011;2321;42.704;23.384;2023-03-01T10:26:00;14.80;;;3.37;;
4616;SDS011;2321;42.704;23.384;2023-03-01T10:28:37;14.43;;;2.83;;
4616;SDS011;2321;42.704;23.384;2023-03-01T10:31:16;37.53;;;6.00;;
4616;SDS011;2321;42.704;23.384;2023-03-01T10:33:48;23.83;;;4.40;;
4616;SDS011;2321;42.704;23.384;2023-03-01T10:36:19;28.53;;;4.80;;
4616;SDS011;2321;42.704;23.384;2023-03-01T10:38:47;24.73;;;4.03;;
4616;SDS011;2321;42.704;23.384;2023-03-01T10:41:17;29.47;;;5.07;;
4616;SDS011;2321;42.704;23.384;2023-03-01T10:43:45;15.63;;;3.00;;
4616;SDS011;2321;42.704;23.384;2023-03-01T10:46:24;19.87;;;3.40;;
4616;SDS011;2321;42.704;23.384;2023-03-01T10:49:07;15.57;;;2.90;;
4616;SDS011;2321;42.704;23.384;2023-03-01T10:51:40;28.87;;;6.20;;
4616;SDS011;2321;42.704;23.384;2023-03-01T10:54:15;25.27;;;4.27;;
4616;SDS011;2321;42.704;23.384;2023-03-01T10:56:47;20.93;;;4.83;;
4616;SDS011;2321;42.704;23.384;2023-03-01T10:59:24;37.73;;;6.00;;
4616;SDS011;2321;42.704;23.384;2023-03-01T11:02:04;17.07;;;3.33;;
4616;SDS011;2321;42.704;23.384;2023-03-01T11:04:56;17.23;;;3.70;;
4616;SDS011;2321;42.704;23.384;2023-03-01T11:07:24;23.43;;;4.20;;
4616;SDS011;2321;42.704;23.384;2023-03-01T11:09:51;25.53;;;4.60;;
4616;SDS011;2321;42.704;23.384;2023-03-01T11:12:19;13.33;;;3.07;;
4616;SDS011;2321;42.704;23.384;2023-03-01T11:14:47;10.73;;;3.13;;
4616;SDS011;2321;42.704;23.384;2023-03-01T11:17:17;9.90;;;2.30;;
4616;SDS011;2321;42.704;23.384;2023-03-01T11:20:00;16.17;;;3.53;;
4616;SDS011;2321;42.704;23.384;2023-03-01T11:22:29;19.83;;;4.20;;
4616;SDS011;2321;42.704;23.384;2023-03-01T11:24:59;17.50;;;3.53;;
4616;SDS011;2321;42.704;23.384;2023-03-01T11:27:28;16.83;;;3.43;;
4616;SDS011;2321;42.704;23.384;2023-03-01T11:29:59;22.00;;;4.30;;
4616;SDS011;2321;42.704;23.384;2023-03-01T11:32:32;10.60;;;2.60;;
4616;SDS011;2321;42.704;23.384;2023-03-01T11:35:10;10.47;;;2.57;;
4616;SDS011;2321;42.704;23.384;2023-03-01T11:37:44;9.80;;;2.60;;
4616;SDS011;2321;42.704;23.384;2023-03-01T11:40:23;21.67;;;4.13;;
4616;SDS011;2321;42.704;23.384;2023-03-01T11:45:51;18.17;;;4.33;;
4616;SDS011;2321;42.704;23.384;2023-03-01T11:48:35;24.63;;;4.70;;
4616;SDS011;2321;42.704;23.384;2023-03-01T11:51:15;20.90;;;3.77;;
4616;SDS011;2321;42.704;23.384;2023-03-01T11:56:37;37.07;;;6.30;;
4616;SDS011;2321;42.704;23.384;2023-03-01T12:02:26;15.27;;;2.87;;
4616;SDS011;2321;42.704;23.384;2023-03-01T12:05:12;14.60;;;2.93;;
4616;SDS011;2321;42.704;23.384;2023-03-01T12:07:53;10.57;;;2.30;;
4616;SDS011;2321;42.704;23.384;2023-03-01T12:10:26;12.87;;;2.37;;
4616;SDS011;2321;42.704;23.384;2023-03-01T12:12:58;10.87;;;2.70;;
4616;SDS011;2321;42.704;23.384;2023-03-01T12:15:39;28.40;;;4.43;;
4616;SDS011;2321;42.704;23.384;2023-03-01T12:18:24;17.63;;;3.53;;
4616;SDS011;2321;42.704;23.384;2023-03-01T12:21:05;10.50;;;2.23;;
4616;SDS011;2321;42.704;23.384;2023-03-01T12:23:52;9.83;;;2.20;;
4616;SDS011;2321;42.704;23.384;2023-03-01T12:26:38;9.40;;;2.10;;
4616;SDS011;2321;42.704;23.384;2023-03-01T12:29:20;12.13;;;2.47;;
4616;SDS011;2321;42.704;23.384;2023-03-01T12:35:05;9.37;;;2.17;;
4616;SDS011;2321;42.704;23.384;2023-03-01T12:37:54;10.30;;;2.27;;
4616;SDS011;2321;42.704;23.384;2023-03-01T12:40:33;19.53;;;3.73;;
4616;SDS011;2321;42.704;23.384;2023-03-01T12:43:22;12.63;;;2.83;;
4616;SDS011;2321;42.704;23.384;2023-03-01T12:46:10;13.53;;;2.60;;
4616;SDS011;2321;42.704;23.384;2023-03-01T12:48:47;13.03;;;2.87;;
4616;SDS011;2321;42.704;23.384;2023-03-01T12:51:23;12.73;;;2.43;;
4616;SDS011;2321;42.704;23.384;2023-03-01T12:53:53;11.73;;;2.63;;
4616;SDS011;2321;42.704;23.384;2023-03-01T12:56:24;12.57;;;2.60;;
4616;SDS011;2321;42.704;23.384;2023-03-01T12:58:55;13.03;;;2.73;;
4616;SDS011;2321;42.704;23.384;2023-03-01T13:01:33;9.20;;;2.10;;
4616;SDS011;2321;42.704;23.384;2023-03-01T13:07:00;36.77;;;5.83;;
4616;SDS011;2321;42.704;23.384;2023-03-01T13:09:38;21.70;;;3.73;;
4616;SDS011;2321;42.704;23.384;2023-03-01T13:15:28;21.17;;;3.60;;
4616;SDS011;2321;42.704;23.384;2023-03-01T13:17:57;18.07;;;3.27;;
4616;SDS011;2321;42.704;23.384;2023-03-01T13:20:26;30.60;;;5.00;;
4616;SDS011;2321;42.704;23.384;2023-03-01T13:23:01;12.97;;;4.13;;
4616;SDS011;2321;42.704;23.384;2023-03-01T13:25:32;12.93;;;2.70;;
4616;SDS011;2321;42.704;23.384;2023-03-01T13:34:41;9.13;;;2.40;;
4616;SDS011;2321;42.704;23.384;2023-03-01T13:37:10;15.03;;;3.37;;
4616;SDS011;2321;42.704;23.384;2023-03-01T13:39:44;10.17;;;2.20;;
4616;SDS011;2321;42.704;23.384;2023-03-01T13:45:25;10.47;;;2.30;;
4616;SDS011;2321;42.704;23.384;2023-03-01T13:48:03;14.10;;;3.23;;
4616;SDS011;2321;42.704;23.384;2023-03-01T13:50:37;14.63;;;2.87;;
4616;SDS011;2321;42.704;23.384;2023-03-01T13:53:12;9.77;;;2.27;;
4616;SDS011;2321;42.704;23.384;2023-03-01T13:55:44;16.10;;;3.57;;
4616;SDS011;2321;42.704;23.384;2023-03-01T13:58:19;9.07;;;2.67;;
4616;SDS011;2321;42.704;23.384;2023-03-01T14:00:56;13.10;;;2.90;;
4616;SDS011;2321;42.704;23.384;2023-03-01T14:03:24;21.93;;;5.70;;
4616;SDS011;2321;42.704;23.384;2023-03-01T14:05:59;12.27;;;2.70;;
4616;SDS011;2321;42.704;23.384;2023-03-01T14:08:29;18.20;;;4.43;;
4616;SDS011;2321;42.704;23.384;2023-03-01T14:11:04;13.80;;;2.90;;
4616;SDS011;2321;42.704;23.384;2023-03-01T14:13:51;18.30;;;4.00;;
4616;SDS011;2321;42.704;23.384;2023-03-01T14:16:35;9.00;;;2.00;;
4616;SDS011;2321;42.704;23.384;2023-03-01T14:19:15;11.70;;;2.80;;
4616;SDS011;2321;42.704;23.384;2023-03-01T14:21:45;14.90;;;3.10;;
4616;SDS011;2321;42.704;23.384;2023-03-01T14:24:20;19.30;;;6.37;;
4616;SDS011;2321;42.704;23.384;2023-03-01T14:26:48;13.33;;;6.20;;
4616;SDS011;2321;42.704;23.384;2023-03-01T14:29:25;13.00;;;3.43;;
4616;SDS011;2321;42.704;23.384;2023-03-01T14:31:54;14.67;;;3.20;;
4616;SDS011;2321;42.704;23.384;2023-03-01T14:34:22;18.13;;;3.80;;
4616;SDS011;2321;42.704;23.384;2023-03-01T14:36:50;13.03;;;2.70;;
4616;SDS011;2321;42.704;23.384;2023-03-01T14:39:18;11.10;;;2.50;;
4616;SDS011;2321;42.704;23.384;2023-03-01T14:41:51;11.50;;;2.70;;
4616;SDS011;2321;42.704;23.384;2023-03-01T14:44:19;10.47;;;2.40;;
4616;SDS011;2321;42.704;23.384;2023-03-01T14:46:51;7.90;;;2.17;;
4616;SDS011;2321;42.704;23.384;2023-03-01T14:49:22;11.93;;;3.30;;
4616;SDS011;2321;42.704;23.384;2023-03-01T14:51:52;11.03;;;2.80;;
4616;SDS011;2321;42.704;23.384;2023-03-01T14:54:23;12.57;;;3.10;;
4616;SDS011;2321;42.704;23.384;2023-03-01T14:56:52;12.30;;;3.23;;
4616;SDS011;2321;42.704;23.384;2023-03-01T14:59:21;10.90;;;2.70;;
4616;SDS011;2321;42.704;23.384;2023-03-01T15:01:49;12.57;;;3.30;;
4616;SDS011;2321;42.704;23.384;2023-03-01T15:04:17;9.80;;;2.40;;
4616;SDS011;2321;42.704;23.384;2023-03-01T15:06:47;12.83;;;2.97;;
4616;SDS011;2321;42.704;23.384;2023-03-01T15:09:17;12.43;;;3.33;;
4616;SDS011;2321;42.704;23.384;2023-03-01T15:11:45;15.07;;;4.07;;
4616;SDS011;2321;42.704;23.384;2023-03-01T15:17:15;10.80;;;2.90;;
4616;SDS011;2321;42.704;23.384;2023-03-01T15:19:52;13.83;;;3.00;;
4616;SDS011;2321;42.704;23.384;2023-03-01T15:22:21;13.93;;;3.77;;
4616;SDS011;2321;42.704;23.384;2023-03-01T15:24:51;10.90;;;2.67;;
4616;SDS011;2321;42.704;23.384;2023-03-01T15:27:19;13.73;;;3.83;;
4616;SDS011;2321;42.704;23.384;2023-03-01T15:29:49;9.80;;;2.90;;
4616;SDS011;2321;42.704;23.384;2023-03-01T15:32:25;7.97;;;2.57;;
4616;SDS011;2321;42.704;23.384;2023-03-01T15:34:54;10.20;;;3.03;;
4616;SDS011;2321;42.704;23.384;2023-03-01T15:37:38;12.87;;;3.10;;
4616;SDS011;2321;42.704;23.384;2023-03-01T15:42:56;10.37;;;3.23;;
4616;SDS011;2321;42.704;23.384;2023-03-01T15:45:23;14.30;;;5.00;;
4616;SDS011;2321;42.704;23.384;2023-03-01T15:47:53;10.93;;;2.53;;
4616;SDS011;2321;42.704;23.384;2023-03-01T15:50:23;10.80;;;2.57;;
4616;SDS011;2321;42.704;23.384;2023-03-01T15:52:53;12.10;;;2.50;;